sensor_id;sensor_type;location;lat;lon;timestamp;P1;durP1;ratioP1;P2;durP2;ratioP2
72974;SDS011;61166;54.228;37.632;2023-03-01T00:01:18;2.90;;;0.50;;
72974;SDS011;61166;54.228;37.632;2023-03-01T00:03:45;2.92;;;0.38;;
72974;SDS011;61166;54.228;37.632;2023-03-01T00:06:11;2.47;;;0.40;;
72974;SDS011;61166;54.228;37.632;2023-03-01T00:08:38;1.80;;;0.50;;
72974;SDS011;61166;54.228;37.632;2023-03-01T00:11:06;2.03;;;0.40;;
72974;SDS011;61166;54.228;37.632;2023-03-01T00:13:33;2.05;;;0.30;;
72974;SDS011;61166;54.228;37.632;2023-03-01T00:16:03;2.15;;;0.30;;
72974;SDS011;61166;54.228;37.632;2023-03-01T00:18:30;1.63;;;0.30;;
72974;SDS011;61166;54.228;37.632;2023-03-01T00:20:57;2.20;;;0.20;;
72974;SDS011;61166;54.228;37.632;2023-03-01T00:23:23;3.53;;;0.38;;
72974;SDS011;61166;54.228;37.632;2023-03-01T00:25:50;1.83;;;0.30;;
72974;SDS011;61166;54.228;37.632;2023-03-01T00:28:17;1.45;;;0.40;;
72974;SDS011;61166;54.228;37.632;2023-03-01T00:30:43;1.57;;;0.40;;
72974;SDS011;61166;54.228;37.632;2023-03-01T00:33:10;1.80;;;0.30;;
72974;SDS011;61166;54.228;37.632;2023-03-01T00:35:37;2.53;;;0.40;;
72974;SDS011;61166;54.228;37.632;2023-03-01T00:38:03;2.75;;;0.50;;
72974;SDS011;61166;54.228;37.632;2023-03-01T00:40:31;1.25;;;0.13;;
72974;SDS011;61166;54.228;37.632;2023-03-01T00:42:58;1.83;;;0.27;;
72974;SDS011;61166;54.228;37.632;2023-03-01T00:45:24;2.03;;;0.50;;
72974;SDS011;61166;54.228;37.632;2023-03-01T00:47:51;2.10;;;0.40;;
72974;SDS011;61166;54.228;37.632;2023-03-01T00:50:17;2.40;;;0.32;;
72974;SDS011;61166;54.228;37.632;2023-03-01T00:52:44;1.63;;;0.30;;
72974;SDS011;61166;54.228;37.632;2023-03-01T00:55:11;1.40;;;0.20;;
72974;SDS011;61166;54.228;37.632;2023-03-01T00:57:38;1.30;;;0.38;;
72974;SDS011;61166;54.228;37.632;2023-03-01T01:00:05;1.50;;;0.30;;
72974;SDS011;61166;54.228;37.632;2023-03-01T01:02:32;2.80;;;0.30;;
72974;SDS011;61166;54.228;37.632;2023-03-01T01:04:59;2.20;;;0.30;;
72974;SDS011;61166;54.228;37.632;2023-03-01T01:07:25;1.40;;;0.27;;
72974;SDS011;61166;54.228;37.632;2023-03-01T01:09:52;3.67;;;0.50;;
72974;SDS011;61166;54.228;37.632;2023-03-01T01:12:18;1.33;;;0.20;;
72974;SDS011;61166;54.228;37.632;2023-03-01T01:14:45;2.95;;;0.30;;
72974;SDS011;61166;54.228;37.632;2023-03-01T01:17:11;1.00;;;0.25;;
72974;SDS011;61166;54.228;37.632;2023-03-01T01:19:38;2.77;;;0.43;;
72974;SDS011;61166;54.228;37.632;2023-03-01T01:22:04;1.77;;;0.45;;
72974;SDS011;61166;54.228;37.632;2023-03-01T01:24:30;1.70;;;0.43;;
72974;SDS011;61166;54.228;37.632;2023-03-01T01:26:57;2.58;;;0.40;;
72974;SDS011;61166;54.228;37.632;2023-03-01T01:29:23;2.30;;;0.60;;
72974;SDS011;61166;54.228;37.632;2023-03-01T01:31:50;1.97;;;0.40;;
72974;SDS011;61166;54.228;37.632;2023-03-01T01:34:18;2.15;;;0.30;;
72974;SDS011;61166;54.228;37.632;2023-03-01T01:36:47;1.67;;;0.30;;
72974;SDS011;61166;54.228;37.632;2023-03-01T01:39:14;2.63;;;0.40;;
72974;SDS011;61166;54.228;37.632;2023-03-01T01:41:40;3.05;;;0.30;;
72974;SDS011;61166;54.228;37.632;2023-03-01T01:44:15;1.40;;;0.30;;
72974;SDS011;61166;54.228;37.632;2023-03-01T01:46:43;1.13;;;0.20;;
72974;SDS011;61166;54.228;37.632;2023-03-01T01:49:22;1.42;;;0.38;;
72974;SDS011;61166;54.228;37.632;2023-03-01T01:51:50;1.00;;;0.10;;
72974;SDS011;61166;54.228;37.632;2023-03-01T01:54:25;3.95;;;0.30;;
72974;SDS011;61166;54.228;37.632;2023-03-01T01:56:58;1.80;;;0.20;;
72974;SDS011;61166;54.228;37.632;2023-03-01T01:59:26;1.48;;;0.28;;
72974;SDS011;61166;54.228;37.632;2023-03-01T02:01:54;1.10;;;0.30;;
72974;SDS011;61166;54.228;37.632;2023-03-01T02:04:20;2.42;;;0.30;;
72974;SDS011;61166;54.228;37.632;2023-03-01T02:06:55;2.08;;;0.50;;
72974;SDS011;61166;54.228;37.632;2023-03-01T02:09:23;3.07;;;0.30;;
72974;SDS011;61166;54.228;37.632;2023-03-01T02:11:50;1.42;;;0.10;;
72974;SDS011;61166;54.228;37.632;2023-03-01T02:14:17;1.92;;;0.30;;
72974;SDS011;61166;54.228;37.632;2023-03-01T02:16:43;2.22;;;0.35;;
72974;SDS011;61166;54.228;37.632;2023-03-01T02:19:12;1.00;;;0.10;;
72974;SDS011;61166;54.228;37.632;2023-03-01T02:22:00;1.70;;;0.30;;
72974;SDS011;61166;54.228;37.632;2023-03-01T02:24:36;2.28;;;0.38;;
72974;SDS011;61166;54.228;37.632;2023-03-01T02:27:07;2.42;;;0.30;;
72974;SDS011;61166;54.228;37.632;2023-03-01T02:29:33;1.63;;;0.45;;
72974;SDS011;61166;54.228;37.632;2023-03-01T02:32:00;3.13;;;0.70;;
72974;SDS011;61166;54.228;37.632;2023-03-01T02:34:28;1.80;;;0.27;;
72974;SDS011;61166;54.228;37.632;2023-03-01T02:39:26;2.03;;;0.17;;
72974;SDS011;61166;54.228;37.632;2023-03-01T02:41:55;5.28;;;0.50;;
72974;SDS011;61166;54.228;37.632;2023-03-01T02:44:22;2.47;;;0.43;;
72974;SDS011;61166;54.228;37.632;2023-03-01T02:46:53;1.10;;;0.20;;
72974;SDS011;61166;54.228;37.632;2023-03-01T02:49:21;1.38;;;0.20;;
72974;SDS011;61166;54.228;37.632;2023-03-01T02:54:25;1.67;;;0.30;;
72974;SDS011;61166;54.228;37.632;2023-03-01T02:56:53;1.63;;;0.40;;
72974;SDS011;61166;54.228;37.632;2023-03-01T02:59:20;1.57;;;0.40;;
72974;SDS011;61166;54.228;37.632;2023-03-01T03:01:47;4.60;;;0.55;;
72974;SDS011;61166;54.228;37.632;2023-03-01T03:04:15;3.60;;;0.40;;
72974;SDS011;61166;54.228;37.632;2023-03-01T03:06:42;2.42;;;0.40;;
72974;SDS011;61166;54.228;37.632;2023-03-01T03:09:08;1.60;;;0.30;;
72974;SDS011;61166;54.228;37.632;2023-03-01T03:11:35;1.10;;;0.23;;
72974;SDS011;61166;54.228;37.632;2023-03-01T03:14:01;1.58;;;0.38;;
72974;SDS011;61166;54.228;37.632;2023-03-01T03:16:28;1.42;;;0.10;;
72974;SDS011;61166;54.228;37.632;2023-03-01T03:18:55;1.20;;;0.10;;
72974;SDS011;61166;54.228;37.632;2023-03-01T03:21:22;3.40;;;0.70;;
72974;SDS011;61166;54.228;37.632;2023-03-01T03:23:48;2.50;;;0.40;;
72974;SDS011;61166;54.228;37.632;2023-03-01T03:26:15;0.90;;;0.32;;
72974;SDS011;61166;54.228;37.632;2023-03-01T03:28:43;1.83;;;0.63;;
72974;SDS011;61166;54.228;37.632;2023-03-01T03:31:09;1.70;;;0.45;;
72974;SDS011;61166;54.228;37.632;2023-03-01T03:33:36;2.05;;;0.65;;
72974;SDS011;61166;54.228;37.632;2023-03-01T03:36:03;4.03;;;0.40;;
72974;SDS011;61166;54.228;37.632;2023-03-01T03:38:29;1.77;;;0.60;;
72974;SDS011;61166;54.228;37.632;2023-03-01T03:41:03;2.13;;;0.30;;
72974;SDS011;61166;54.228;37.632;2023-03-01T03:43:31;3.85;;;0.60;;
72974;SDS011;61166;54.228;37.632;2023-03-01T03:45:58;5.80;;;1.20;;
72974;SDS011;61166;54.228;37.632;2023-03-01T03:48:25;6.33;;;0.90;;
72974;SDS011;61166;54.228;37.632;2023-03-01T03:50:53;6.70;;;1.58;;
72974;SDS011;61166;54.228;37.632;2023-03-01T03:53:19;3.42;;;1.17;;
72974;SDS011;61166;54.228;37.632;2023-03-01T03:55:46;5.47;;;1.30;;
72974;SDS011;61166;54.228;37.632;2023-03-01T03:58:12;6.25;;;1.70;;
72974;SDS011;61166;54.228;37.632;2023-03-01T04:00:41;4.83;;;1.60;;
72974;SDS011;61166;54.228;37.632;2023-03-01T04:03:08;6.18;;;1.10;;
72974;SDS011;61166;54.228;37.632;2023-03-01T04:05:35;4.93;;;1.52;;
72974;SDS011;61166;54.228;37.632;2023-03-01T04:08:02;2.65;;;0.90;;
72974;SDS011;61166;54.228;37.632;2023-03-01T04:10:29;1.38;;;0.50;;
72974;SDS011;61166;54.228;37.632;2023-03-01T04:12:56;2.23;;;0.70;;
72974;SDS011;61166;54.228;37.632;2023-03-01T04:15:23;4.00;;;1.00;;
72974;SDS011;61166;54.228;37.632;2023-03-01T04:17:51;1.85;;;0.50;;
72974;SDS011;61166;54.228;37.632;2023-03-01T04:20:18;2.85;;;0.75;;
72974;SDS011;61166;54.228;37.632;2023-03-01T04:22:45;3.20;;;1.10;;
72974;SDS011;61166;54.228;37.632;2023-03-01T04:25:11;3.53;;;1.30;;
72974;SDS011;61166;54.228;37.632;2023-03-01T04:27:37;4.78;;;1.30;;
72974;SDS011;61166;54.228;37.632;2023-03-01T04:30:04;2.63;;;0.98;;
72974;SDS011;61166;54.228;37.632;2023-03-01T04:32:31;5.32;;;1.33;;
72974;SDS011;61166;54.228;37.632;2023-03-01T04:34:58;3.28;;;1.52;;
72974;SDS011;61166;54.228;37.632;2023-03-01T04:37:25;2.50;;;1.50;;
72974;SDS011;61166;54.228;37.632;2023-03-01T04:39:51;3.78;;;1.17;;
72974;SDS011;61166;54.228;37.632;2023-03-01T04:42:18;4.15;;;0.90;;
72974;SDS011;61166;54.228;37.632;2023-03-01T04:44:45;3.50;;;1.95;;
72974;SDS011;61166;54.228;37.632;2023-03-01T04:47:12;4.25;;;2.25;;
72974;SDS011;61166;54.228;37.632;2023-03-01T04:49:38;3.20;;;3.00;;
72974;SDS011;61166;54.228;37.632;2023-03-01T04:52:05;4.45;;;4.15;;
72974;SDS011;61166;54.228;37.632;2023-03-01T04:54:31;5.10;;;4.70;;
72974;SDS011;61166;54.228;37.632;2023-03-01T04:56:58;6.15;;;5.65;;
72974;SDS011;61166;54.228;37.632;2023-03-01T04:59:25;7.28;;;6.57;;
72974;SDS011;61166;54.228;37.632;2023-03-01T05:01:52;9.60;;;8.87;;
72974;SDS011;61166;54.228;37.632;2023-03-01T05:04:19;8.73;;;8.02;;
72974;SDS011;61166;54.228;37.632;2023-03-01T05:06:45;8.80;;;8.10;;
72974;SDS011;61166;54.228;37.632;2023-03-01T05:09:12;9.10;;;8.45;;
72974;SDS011;61166;54.228;37.632;2023-03-01T05:11:38;10.02;;;9.32;;
72974;SDS011;61166;54.228;37.632;2023-03-01T05:14:05;10.50;;;9.60;;
72974;SDS011;61166;54.228;37.632;2023-03-01T05:16:32;4.68;;;3.13;;
72974;SDS011;61166;54.228;37.632;2023-03-01T05:19:01;9.40;;;8.73;;
72974;SDS011;61166;54.228;37.632;2023-03-01T05:21:28;9.30;;;8.60;;
72974;SDS011;61166;54.228;37.632;2023-03-01T05:23:56;9.50;;;8.82;;
72974;SDS011;61166;54.228;37.632;2023-03-01T05:26:22;11.17;;;10.40;;
72974;SDS011;61166;54.228;37.632;2023-03-01T05:28:54;8.73;;;8.07;;
72974;SDS011;61166;54.228;37.632;2023-03-01T05:31:21;7.95;;;7.35;;
72974;SDS011;61166;54.228;37.632;2023-03-01T05:33:47;8.45;;;7.85;;
72974;SDS011;61166;54.228;37.632;2023-03-01T05:36:14;6.65;;;6.15;;
72974;SDS011;61166;54.228;37.632;2023-03-01T05:38:40;7.72;;;7.22;;
72974;SDS011;61166;54.228;37.632;2023-03-01T05:41:13;7.32;;;6.72;;
72974;SDS011;61166;54.228;37.632;2023-03-01T05:43:40;5.93;;;5.53;;
72974;SDS011;61166;54.228;37.632;2023-03-01T05:46:06;5.70;;;5.30;;
72974;SDS011;61166;54.228;37.632;2023-03-01T05:48:33;6.50;;;6.03;;
72974;SDS011;61166;54.228;37.632;2023-03-01T05:51:00;8.63;;;5.63;;
72974;SDS011;61166;54.228;37.632;2023-03-01T05:53:26;6.45;;;5.85;;
72974;SDS011;61166;54.228;37.632;2023-03-01T05:55:53;5.03;;;4.53;;
72974;SDS011;61166;54.228;37.632;2023-03-01T05:58:20;15.35;;;9.80;;
72974;SDS011;61166;54.228;37.632;2023-03-01T06:00:47;5.47;;;4.93;;
72974;SDS011;61166;54.228;37.632;2023-03-01T06:03:14;6.28;;;5.13;;
72974;SDS011;61166;54.228;37.632;2023-03-01T06:05:41;4.60;;;3.90;;
72974;SDS011;61166;54.228;37.632;2023-03-01T06:08:09;5.18;;;4.70;;
72974;SDS011;61166;54.228;37.632;2023-03-01T06:10:35;4.47;;;4.07;;
72974;SDS011;61166;54.228;37.632;2023-03-01T06:13:02;4.47;;;4.10;;
72974;SDS011;61166;54.228;37.632;2023-03-01T06:15:32;5.38;;;4.88;;
72974;SDS011;61166;54.228;37.632;2023-03-01T06:17:59;5.00;;;4.47;;
72974;SDS011;61166;54.228;37.632;2023-03-01T06:20:28;4.40;;;4.10;;
72974;SDS011;61166;54.228;37.632;2023-03-01T06:22:54;5.38;;;4.88;;
72974;SDS011;61166;54.228;37.632;2023-03-01T06:25:24;4.55;;;4.15;;
72974;SDS011;61166;54.228;37.632;2023-03-01T06:27:54;4.68;;;4.32;;
72974;SDS011;61166;54.228;37.632;2023-03-01T06:30:22;4.57;;;3.40;;
72974;SDS011;61166;54.228;37.632;2023-03-01T06:32:49;4.45;;;3.20;;
72974;SDS011;61166;54.228;37.632;2023-03-01T06:35:16;4.57;;;3.67;;
72974;SDS011;61166;54.228;37.632;2023-03-01T06:37:43;4.15;;;3.70;;
72974;SDS011;61166;54.228;37.632;2023-03-01T06:40:10;4.63;;;4.13;;
72974;SDS011;61166;54.228;37.632;2023-03-01T06:42:38;4.27;;;3.87;;
72974;SDS011;61166;54.228;37.632;2023-03-01T06:45:05;4.60;;;4.07;;
72974;SDS011;61166;54.228;37.632;2023-03-01T06:47:32;5.00;;;4.40;;
72974;SDS011;61166;54.228;37.632;2023-03-01T06:49:59;4.30;;;3.90;;
72974;SDS011;61166;54.228;37.632;2023-03-01T06:52:26;4.15;;;3.72;;
72974;SDS011;61166;54.228;37.632;2023-03-01T06:54:52;4.77;;;2.90;;
72974;SDS011;61166;54.228;37.632;2023-03-01T06:57:19;3.35;;;3.05;;
72974;SDS011;61166;54.228;37.632;2023-03-01T06:59:48;5.63;;;2.50;;
72974;SDS011;61166;54.228;37.632;2023-03-01T07:02:15;3.55;;;2.17;;
72974;SDS011;61166;54.228;37.632;2023-03-01T07:04:42;4.78;;;2.40;;
72974;SDS011;61166;54.228;37.632;2023-03-01T07:07:09;5.27;;;1.80;;
72974;SDS011;61166;54.228;37.632;2023-03-01T07:09:36;2.60;;;2.38;;
72974;SDS011;61166;54.228;37.632;2023-03-01T07:12:05;3.67;;;1.80;;
72974;SDS011;61166;54.228;37.632;2023-03-01T07:14:32;2.42;;;1.83;;
72974;SDS011;61166;54.228;37.632;2023-03-01T07:36:26;2.58;;;1.27;;
72974;SDS011;61166;54.228;37.632;2023-03-01T07:38:52;3.90;;;1.20;;
72974;SDS011;61166;54.228;37.632;2023-03-01T07:41:19;3.85;;;1.98;;
72974;SDS011;61166;54.228;37.632;2023-03-01T07:43:46;3.97;;;1.65;;
72974;SDS011;61166;54.228;37.632;2023-03-01T07:46:13;6.38;;;2.30;;
72974;SDS011;61166;54.228;37.632;2023-03-01T07:48:39;2.88;;;1.70;;
72974;SDS011;61166;54.228;37.632;2023-03-01T07:51:06;3.50;;;1.95;;
72974;SDS011;61166;54.228;37.632;2023-03-01T07:53:33;5.43;;;2.10;;
72974;SDS011;61166;54.228;37.632;2023-03-01T07:56:01;3.92;;;2.15;;
72974;SDS011;61166;54.228;37.632;2023-03-01T07:58:27;2.88;;;1.55;;
72974;SDS011;61166;54.228;37.632;2023-03-01T08:00:53;3.28;;;2.17;;
72974;SDS011;61166;54.228;37.632;2023-03-01T08:03:20;2.63;;;1.70;;
72974;SDS011;61166;54.228;37.632;2023-03-01T08:05:46;3.38;;;1.35;;
72974;SDS011;61166;54.228;37.632;2023-03-01T08:08:13;2.83;;;1.40;;
72974;SDS011;61166;54.228;37.632;2023-03-01T08:10:39;2.47;;;1.48;;
72974;SDS011;61166;54.228;37.632;2023-03-01T08:13:06;3.97;;;1.70;;
72974;SDS011;61166;54.228;37.632;2023-03-01T08:15:32;4.47;;;2.15;;
72974;SDS011;61166;54.228;37.632;2023-03-01T08:17:58;2.70;;;1.60;;
72974;SDS011;61166;54.228;37.632;2023-03-01T08:20:25;4.63;;;2.30;;
72974;SDS011;61166;54.228;37.632;2023-03-01T08:22:51;4.20;;;1.77;;
72974;SDS011;61166;54.228;37.632;2023-03-01T08:25:18;3.47;;;1.90;;
72974;SDS011;61166;54.228;37.632;2023-03-01T08:27:44;2.38;;;1.17;;
72974;SDS011;61166;54.228;37.632;2023-03-01T08:30:11;2.30;;;1.48;;
72974;SDS011;61166;54.228;37.632;2023-03-01T08:32:38;4.22;;;1.98;;
72974;SDS011;61166;54.228;37.632;2023-03-01T08:35:05;3.23;;;1.87;;
72974;SDS011;61166;54.228;37.632;2023-03-01T08:37:32;4.60;;;2.20;;
72974;SDS011;61166;54.228;37.632;2023-03-01T08:39:59;2.72;;;1.88;;
72974;SDS011;61166;54.228;37.632;2023-03-01T08:42:26;4.30;;;2.33;;
72974;SDS011;61166;54.228;37.632;2023-03-01T08:44:52;3.45;;;1.95;;
72974;SDS011;61166;54.228;37.632;2023-03-01T08:47:19;3.60;;;2.17;;
72974;SDS011;61166;54.228;37.632;2023-03-01T08:49:45;2.88;;;2.15;;
72974;SDS011;61166;54.228;37.632;2023-03-01T08:52:11;2.92;;;2.45;;
72974;SDS011;61166;54.228;37.632;2023-03-01T08:54:38;3.47;;;2.05;;
72974;SDS011;61166;54.228;37.632;2023-03-01T08:57:04;4.15;;;2.03;;
72974;SDS011;61166;54.228;37.632;2023-03-01T08:59:31;3.60;;;1.63;;
72974;SDS011;61166;54.228;37.632;2023-03-01T09:01:57;3.47;;;2.53;;
72974;SDS011;61166;54.228;37.632;2023-03-01T09:04:24;3.60;;;2.30;;
72974;SDS011;61166;54.228;37.632;2023-03-01T09:06:50;3.60;;;2.10;;
72974;SDS011;61166;54.228;37.632;2023-03-01T09:09:17;3.33;;;2.00;;
72974;SDS011;61166;54.228;37.632;2023-03-01T09:11:44;2.73;;;1.80;;
72974;SDS011;61166;54.228;37.632;2023-03-01T09:14:11;3.08;;;1.80;;
72974;SDS011;61166;54.228;37.632;2023-03-01T09:16:37;3.05;;;2.33;;
72974;SDS011;61166;54.228;37.632;2023-03-01T09:19:04;3.28;;;2.00;;
72974;SDS011;61166;54.228;37.632;2023-03-01T09:21:31;3.22;;;2.13;;
72974;SDS011;61166;54.228;37.632;2023-03-01T09:24:07;5.07;;;1.87;;
72974;SDS011;61166;54.228;37.632;2023-03-01T09:26:37;3.95;;;1.00;;
72974;SDS011;61166;54.228;37.632;2023-03-01T09:29:04;3.53;;;2.15;;
72974;SDS011;61166;54.228;37.632;2023-03-01T09:31:30;3.75;;;1.70;;
72974;SDS011;61166;54.228;37.632;2023-03-01T09:33:56;3.38;;;1.75;;
72974;SDS011;61166;54.228;37.632;2023-03-01T09:36:25;2.23;;;1.90;;
72974;SDS011;61166;54.228;37.632;2023-03-01T09:38:51;3.13;;;1.35;;
72974;SDS011;61166;54.228;37.632;2023-03-01T09:43:51;3.35;;;1.35;;
72974;SDS011;61166;54.228;37.632;2023-03-01T09:46:22;4.15;;;1.48;;
72974;SDS011;61166;54.228;37.632;2023-03-01T09:48:56;2.15;;;0.80;;
72974;SDS011;61166;54.228;37.632;2023-03-01T09:51:26;2.55;;;0.80;;
72974;SDS011;61166;54.228;37.632;2023-03-01T09:53:53;2.95;;;1.20;;
72974;SDS011;61166;54.228;37.632;2023-03-01T09:56:20;2.45;;;0.73;;
72974;SDS011;61166;54.228;37.632;2023-03-01T10:06:35;3.08;;;1.10;;
72974;SDS011;61166;54.228;37.632;2023-03-01T10:09:19;2.15;;;0.68;;
72974;SDS011;61166;54.228;37.632;2023-03-01T10:11:47;1.65;;;0.95;;
72974;SDS011;61166;54.228;37.632;2023-03-01T10:16:51;2.92;;;1.13;;
72974;SDS011;61166;54.228;37.632;2023-03-01T10:19:32;3.22;;;1.25;;
72974;SDS011;61166;54.228;37.632;2023-03-01T10:22:04;4.45;;;0.73;;
72974;SDS011;61166;54.228;37.632;2023-03-01T10:24:34;2.22;;;0.63;;
72974;SDS011;61166;54.228;37.632;2023-03-01T10:27:04;2.97;;;0.77;;
72974;SDS011;61166;54.228;37.632;2023-03-01T10:29:46;4.15;;;1.00;;
72974;SDS011;61166;54.228;37.632;2023-03-01T10:32:14;6.20;;;1.08;;
72974;SDS011;61166;54.228;37.632;2023-03-01T10:34:41;4.03;;;0.77;;
72974;SDS011;61166;54.228;37.632;2023-03-01T10:37:12;3.27;;;1.10;;
72974;SDS011;61166;54.228;37.632;2023-03-01T10:42:25;2.25;;;0.82;;
72974;SDS011;61166;54.228;37.632;2023-03-01T10:44:52;3.80;;;1.20;;
72974;SDS011;61166;54.228;37.632;2023-03-01T10:47:25;1.55;;;0.60;;
72974;SDS011;61166;54.228;37.632;2023-03-01T10:49:59;3.22;;;0.90;;
72974;SDS011;61166;54.228;37.632;2023-03-01T10:52:36;3.80;;;0.65;;
72974;SDS011;61166;54.228;37.632;2023-03-01T11:02:41;4.75;;;1.33;;
72974;SDS011;61166;54.228;37.632;2023-03-01T11:07:50;2.80;;;0.70;;
72974;SDS011;61166;54.228;37.632;2023-03-01T11:10:18;3.47;;;0.77;;
72974;SDS011;61166;54.228;37.632;2023-03-01T11:12:45;3.20;;;1.02;;
72974;SDS011;61166;54.228;37.632;2023-03-01T11:15:21;2.47;;;1.00;;
72974;SDS011;61166;54.228;37.632;2023-03-01T11:17:49;1.80;;;0.82;;
72974;SDS011;61166;54.228;37.632;2023-03-01T11:22:55;2.10;;;1.10;;
72974;SDS011;61166;54.228;37.632;2023-03-01T11:25:27;1.98;;;0.75;;
72974;SDS011;61166;54.228;37.632;2023-03-01T11:27:56;3.22;;;1.20;;
72974;SDS011;61166;54.228;37.632;2023-03-01T11:30:27;2.15;;;0.98;;
72974;SDS011;61166;54.228;37.632;2023-03-01T11:32:58;2.28;;;1.02;;
72974;SDS011;61166;54.228;37.632;2023-03-01T11:35:27;3.80;;;0.90;;
72974;SDS011;61166;54.228;37.632;2023-03-01T11:38:15;3.35;;;0.98;;
72974;SDS011;61166;54.228;37.632;2023-03-01T11:40:57;3.33;;;0.70;;
72974;SDS011;61166;54.228;37.632;2023-03-01T11:48:44;2.45;;;1.13;;
72974;SDS011;61166;54.228;37.632;2023-03-01T11:51:20;2.25;;;0.70;;
72974;SDS011;61166;54.228;37.632;2023-03-01T12:01:45;5.03;;;0.80;;
72974;SDS011;61166;54.228;37.632;2023-03-01T12:07:01;2.42;;;0.75;;
72974;SDS011;61166;54.228;37.632;2023-03-01T12:09:42;3.67;;;0.80;;
72974;SDS011;61166;54.228;37.632;2023-03-01T12:14:52;1.80;;;0.80;;
72974;SDS011;61166;54.228;37.632;2023-03-01T12:28:14;2.45;;;0.90;;
72974;SDS011;61166;54.228;37.632;2023-03-01T12:31:03;4.38;;;0.70;;
72974;SDS011;61166;54.228;37.632;2023-03-01T12:33:42;2.70;;;1.00;;
72974;SDS011;61166;54.228;37.632;2023-03-01T12:39:11;2.65;;;0.60;;
72974;SDS011;61166;54.228;37.632;2023-03-01T12:41:54;2.08;;;0.50;;
72974;SDS011;61166;54.228;37.632;2023-03-01T12:47:04;4.60;;;0.40;;
72974;SDS011;61166;54.228;37.632;2023-03-01T12:49:37;1.92;;;0.65;;
72974;SDS011;61166;54.228;37.632;2023-03-01T12:52:14;2.55;;;0.90;;
72974;SDS011;61166;54.228;37.632;2023-03-01T12:54:42;1.80;;;0.65;;
72974;SDS011;61166;54.228;37.632;2023-03-01T12:57:12;2.30;;;0.57;;
72974;SDS011;61166;54.228;37.632;2023-03-01T13:02:33;1.75;;;0.55;;
72974;SDS011;61166;54.228;37.632;2023-03-01T13:05:24;1.48;;;0.70;;
72974;SDS011;61166;54.228;37.632;2023-03-01T13:08:01;1.88;;;0.90;;
72974;SDS011;61166;54.228;37.632;2023-03-01T13:10:49;4.85;;;0.98;;
72974;SDS011;61166;54.228;37.632;2023-03-01T13:15:49;2.13;;;0.60;;
72974;SDS011;61166;54.228;37.632;2023-03-01T13:30:58;2.00;;;0.60;;
72974;SDS011;61166;54.228;37.632;2023-03-01T13:35:55;1.98;;;0.57;;
72974;SDS011;61166;54.228;37.632;2023-03-01T13:42:25;2.38;;;0.65;;
72974;SDS011;61166;54.228;37.632;2023-03-01T13:44:12;1.50;;;0.40;;
72974;SDS011;61166;54.228;37.632;2023-03-01T13:46:39;1.90;;;0.50;;
72974;SDS011;61166;54.228;37.632;2023-03-01T13:49:09;2.65;;;0.50;;
72974;SDS011;61166;54.228;37.632;2023-03-01T13:51:37;2.30;;;0.50;;
72974;SDS011;61166;54.228;37.632;2023-03-01T13:54:04;2.00;;;0.80;;
72974;SDS011;61166;54.228;37.632;2023-03-01T13:56:36;2.28;;;0.60;;
72974;SDS011;61166;54.228;37.632;2023-03-01T13:59:04;1.88;;;0.30;;
72974;SDS011;61166;54.228;37.632;2023-03-01T14:01:32;2.88;;;0.47;;
72974;SDS011;61166;54.228;37.632;2023-03-01T14:04:00;2.83;;;0.53;;
72974;SDS011;61166;54.228;37.632;2023-03-01T14:06:28;2.08;;;0.60;;
72974;SDS011;61166;54.228;37.632;2023-03-01T14:09:28;1.50;;;0.32;;
72974;SDS011;61166;54.228;37.632;2023-03-01T14:11:54;3.08;;;0.60;;
72974;SDS011;61166;54.228;37.632;2023-03-01T14:19:40;3.30;;;0.47;;
72974;SDS011;61166;54.228;37.632;2023-03-01T14:24:33;3.05;;;0.47;;
72974;SDS011;61166;54.228;37.632;2023-03-01T14:27:02;1.67;;;0.52;;
72974;SDS011;61166;54.228;37.632;2023-03-01T14:29:36;4.93;;;0.70;;
72974;SDS011;61166;54.228;37.632;2023-03-01T14:32:15;3.33;;;0.70;;
72974;SDS011;61166;54.228;37.632;2023-03-01T14:34:45;1.90;;;0.35;;
72974;SDS011;61166;54.228;37.632;2023-03-01T14:39:44;1.30;;;0.38;;
72974;SDS011;61166;54.228;37.632;2023-03-01T14:42:11;1.73;;;0.43;;
72974;SDS011;61166;54.228;37.632;2023-03-01T14:44:45;1.60;;;0.70;;
72974;SDS011;61166;54.228;37.632;2023-03-01T14:47:14;2.35;;;0.98;;
72974;SDS011;61166;54.228;37.632;2023-03-01T14:49:41;6.70;;;0.98;;
72974;SDS011;61166;54.228;37.632;2023-03-01T14:52:18;2.65;;;0.60;;
72974;SDS011;61166;54.228;37.632;2023-03-01T14:54:47;2.30;;;0.50;;
72974;SDS011;61166;54.228;37.632;2023-03-01T14:57:16;3.35;;;0.80;;
72974;SDS011;61166;54.228;37.632;2023-03-01T14:59:43;1.58;;;0.50;;
72974;SDS011;61166;54.228;37.632;2023-03-01T15:02:13;3.50;;;0.80;;
72974;SDS011;61166;54.228;37.632;2023-03-01T15:04:41;2.22;;;0.45;;
72974;SDS011;61166;54.228;37.632;2023-03-01T15:07:09;1.97;;;0.70;;
72974;SDS011;61166;54.228;37.632;2023-03-01T15:09:39;3.45;;;1.17;;
72974;SDS011;61166;54.228;37.632;2023-03-01T15:12:25;2.83;;;0.90;;
72974;SDS011;61166;54.228;37.632;2023-03-01T15:14:51;6.25;;;1.17;;
72974;SDS011;61166;54.228;37.632;2023-03-01T15:17:30;3.80;;;1.42;;
72974;SDS011;61166;54.228;37.632;2023-03-01T15:19:58;4.83;;;1.57;;
72974;SDS011;61166;54.228;37.632;2023-03-01T15:22:25;2.30;;;0.90;;
72974;SDS011;61166;54.228;37.632;2023-03-01T15:24:52;7.05;;;1.70;;
72974;SDS011;61166;54.228;37.632;2023-03-01T15:27:20;4.28;;;1.30;;
72974;SDS011;61166;54.228;37.632;2023-03-01T15:29:55;5.45;;;1.30;;
72974;SDS011;61166;54.228;37.632;2023-03-01T15:34:48;3.78;;;1.25;;
72974;SDS011;61166;54.228;37.632;2023-03-01T15:40:00;2.30;;;0.57;;
72974;SDS011;61166;54.228;37.632;2023-03-01T15:45:19;4.37;;;0.60;;
72974;SDS011;61166;54.228;37.632;2023-03-01T15:47:47;2.97;;;0.80;;
72974;SDS011;61166;54.228;37.632;2023-03-01T15:50:19;3.85;;;1.08;;
72974;SDS011;61166;54.228;37.632;2023-03-01T15:52:46;3.95;;;0.82;;
72974;SDS011;61166;54.228;37.632;2023-03-01T15:55:15;2.00;;;0.60;;
72974;SDS011;61166;54.228;37.632;2023-03-01T15:57:42;3.60;;;0.93;;
72974;SDS011;61166;54.228;37.632;2023-03-01T16:00:09;3.42;;;1.02;;
72974;SDS011;61166;54.228;37.632;2023-03-01T16:02:36;2.20;;;0.90;;
72974;SDS011;61166;54.228;37.632;2023-03-01T16:05:03;3.67;;;1.02;;
72974;SDS011;61166;54.228;37.632;2023-03-01T16:07:30;2.20;;;0.52;;
72974;SDS011;61166;54.228;37.632;2023-03-01T16:09:57;1.93;;;0.47;;
72974;SDS011;61166;54.228;37.632;2023-03-01T16:12:23;4.57;;;1.20;;
72974;SDS011;61166;54.228;37.632;2023-03-01T16:14:50;2.15;;;0.75;;
72974;SDS011;61166;54.228;37.632;2023-03-01T16:17:17;2.92;;;0.70;;
72974;SDS011;61166;54.228;37.632;2023-03-01T16:19:43;6.00;;;1.05;;
72974;SDS011;61166;54.228;37.632;2023-03-01T16:22:10;6.70;;;0.93;;
72974;SDS011;61166;54.228;37.632;2023-03-01T16:24:36;2.60;;;0.90;;
72974;SDS011;61166;54.228;37.632;2023-03-01T16:27:03;3.90;;;0.73;;
72974;SDS011;61166;54.228;37.632;2023-03-01T16:29:29;3.72;;;0.60;;
72974;SDS011;61166;54.228;37.632;2023-03-01T16:31:56;1.45;;;0.43;;
72974;SDS011;61166;54.228;37.632;2023-03-01T16:34:23;2.00;;;0.67;;
72974;SDS011;61166;54.228;37.632;2023-03-01T16:36:49;3.63;;;0.63;;
72974;SDS011;61166;54.228;37.632;2023-03-01T16:39:15;7.55;;;0.68;;
72974;SDS011;61166;54.228;37.632;2023-03-01T16:41:42;2.15;;;0.35;;
72974;SDS011;61166;54.228;37.632;2023-03-01T16:44:09;2.65;;;0.35;;
72974;SDS011;61166;54.228;37.632;2023-03-01T16:46:35;3.00;;;0.30;;
72974;SDS011;61166;54.228;37.632;2023-03-01T16:49:02;3.35;;;0.55;;
72974;SDS011;61166;54.228;37.632;2023-03-01T16:51:28;5.82;;;1.75;;